N31GJ BIKF-KBGR
Flight info
| Callsign | N31GJ |
|---|---|
| Flight time | 4h 41m |
| Altitude | 40000 |
| Route | RALOV1D RALOV DCT RAKIS DCT 6330N DCT 62N034W 61N038W 60N042W DCT H5847 DCT 56N052W/N0402F400 54N056W DCT YGP DCT TUGUB |
| Aircraft | LJ35/M-SGHRWXY/SB1 |
Departure
| Time | 2026-04-18 11:10 |
|---|---|
| Airport | Keflavik International Airport (BIKF) |
Arrival
| Time | 2026-04-18 15:52 |
|---|---|
| Airport | Bangor International Airport (KBGR) |
| Time | Latitude | Longitude | Altitude | Speed | Heading |
|---|---|---|---|---|---|
| 2026-04-18 11:01 | 63.97483 | -22.58999 | 174 ft | 0 kts | 112° |
| 2026-04-18 11:06 | 63.97483 | -22.58998 | 174 ft | 1 kts | 112° |
| 2026-04-18 11:07 | 63.97482 | -22.58991 | 174 ft | 0 kts | 109° |
| 2026-04-18 11:07 | 63.97500 | -22.58952 | 174 ft | 7 kts | 337° |
| 2026-04-18 11:07 | 63.97537 | -22.59049 | 174 ft | 10 kts | 314° |
| 2026-04-18 11:07 | 63.97607 | -22.59080 | 174 ft | 12 kts | 19° |
| 2026-04-18 11:08 | 63.97694 | -22.58997 | 174 ft | 15 kts | 21° |
| 2026-04-18 11:08 | 63.97798 | -22.58905 | 174 ft | 17 kts | 22° |
| 2026-04-18 11:08 | 63.97915 | -22.58801 | 174 ft | 15 kts | 21° |
| 2026-04-18 11:08 | 63.98015 | -22.58859 | 174 ft | 16 kts | 338° |
| 2026-04-18 11:09 | 63.98127 | -22.58966 | 174 ft | 19 kts | 338° |
| 2026-04-18 11:09 | 63.98253 | -22.59082 | 174 ft | 20 kts | 338° |
| 2026-04-18 11:09 | 63.98384 | -22.59207 | 174 ft | 19 kts | 339° |
| 2026-04-18 11:09 | 63.98478 | -22.59295 | 171 ft | 13 kts | 338° |
| 2026-04-18 11:10 | 63.98506 | -22.59471 | 173 ft | 18 kts | 270° |
| 2026-04-18 11:10 | 63.98504 | -22.60346 | 175 ft | 106 kts | 270° |
| 2026-04-18 11:10 | 63.98497 | -22.62625 | 491 ft | 165 kts | 269° |
| 2026-04-18 11:10 | 63.98460 | -22.65391 | 1477 ft | 182 kts | 269° |
| 2026-04-18 11:11 | 63.98459 | -22.68306 | 2342 ft | 191 kts | 272° |
| 2026-04-18 11:11 | 63.98511 | -22.71537 | 2967 ft | 216 kts | 274° |
| 2026-04-18 11:11 | 63.98564 | -22.75085 | 3715 ft | 235 kts | 271° |
| 2026-04-18 11:11 | 63.98491 | -22.78935 | 4574 ft | 244 kts | 266° |
| 2026-04-18 11:12 | 63.98315 | -22.82813 | 5637 ft | 248 kts | 265° |
| 2026-04-18 11:12 | 63.98130 | -22.86732 | 6671 ft | 251 kts | 265° |
| 2026-04-18 11:12 | 63.97951 | -22.90717 | 7665 ft | 255 kts | 265° |
| 2026-04-18 11:12 | 63.97775 | -22.94767 | 8630 ft | 258 kts | 264° |
| 2026-04-18 11:13 | 63.97599 | -22.98876 | 9552 ft | 263 kts | 264° |
| 2026-04-18 11:13 | 63.97419 | -23.03054 | 10436 ft | 267 kts | 263° |
| 2026-04-18 11:13 | 63.97236 | -23.07283 | 11294 ft | 271 kts | 263° |
| 2026-04-18 11:13 | 63.97049 | -23.11581 | 12108 ft | 275 kts | 262° |
| 2026-04-18 11:14 | 63.96859 | -23.15890 | 12897 ft | 279 kts | 262° |
| 2026-04-18 11:14 | 63.96664 | -23.20293 | 13719 ft | 281 kts | 262° |
| 2026-04-18 11:14 | 63.96465 | -23.24743 | 14505 ft | 284 kts | 261° |
| 2026-04-18 11:14 | 63.96263 | -23.29251 | 15294 ft | 287 kts | 261° |
| 2026-04-18 11:15 | 63.96058 | -23.33789 | 16065 ft | 290 kts | 261° |
| 2026-04-18 11:15 | 63.95850 | -23.38379 | 16831 ft | 292 kts | 261° |
| 2026-04-18 11:15 | 63.95638 | -23.43002 | 17550 ft | 296 kts | 261° |
| 2026-04-18 11:15 | 63.95421 | -23.47672 | 18286 ft | 299 kts | 261° |
| 2026-04-18 11:16 | 63.95203 | -23.52392 | 19005 ft | 301 kts | 261° |
| 2026-04-18 11:16 | 63.94979 | -23.57160 | 19717 ft | 303 kts | 261° |
| 2026-04-18 11:16 | 63.94753 | -23.61950 | 20421 ft | 305 kts | 261° |
| 2026-04-18 11:16 | 63.94525 | -23.66771 | 21110 ft | 307 kts | 261° |
| 2026-04-18 11:17 | 63.94294 | -23.71624 | 21791 ft | 309 kts | 261° |
| 2026-04-18 11:17 | 63.94060 | -23.76498 | 22436 ft | 312 kts | 261° |
| 2026-04-18 11:17 | 63.93825 | -23.81346 | 23060 ft | 314 kts | 261° |
| 2026-04-18 11:17 | 63.93583 | -23.86292 | 23688 ft | 315 kts | 261° |
| 2026-04-18 11:18 | 63.93337 | -23.91268 | 24264 ft | 317 kts | 261° |
| 2026-04-18 11:18 | 63.93091 | -23.96258 | 24868 ft | 319 kts | 261° |
| 2026-04-18 11:18 | 63.92842 | -24.01297 | 25475 ft | 321 kts | 261° |
| 2026-04-18 11:18 | 63.92587 | -24.06366 | 26055 ft | 323 kts | 261° |
| 2026-04-18 11:19 | 63.92330 | -24.11436 | 26637 ft | 324 kts | 261° |
| 2026-04-18 11:19 | 63.92069 | -24.16548 | 27194 ft | 326 kts | 261° |
| 2026-04-18 11:19 | 63.91806 | -24.21675 | 27740 ft | 327 kts | 261° |
| 2026-04-18 11:19 | 63.91539 | -24.26825 | 28284 ft | 329 kts | 261° |
| 2026-04-18 11:20 | 63.91271 | -24.31995 | 28815 ft | 330 kts | 261° |
| 2026-04-18 11:20 | 63.90998 | -24.37185 | 29339 ft | 331 kts | 260° |
| 2026-04-18 11:20 | 63.90723 | -24.42388 | 29834 ft | 333 kts | 260° |
| 2026-04-18 11:20 | 63.90445 | -24.47622 | 30322 ft | 334 kts | 260° |
| 2026-04-18 11:21 | 63.90161 | -24.52904 | 30666 ft | 339 kts | 260° |
| 2026-04-18 11:21 | 63.89872 | -24.58264 | 30999 ft | 344 kts | 260° |
| 2026-04-18 11:21 | 63.89577 | -24.63695 | 31317 ft | 349 kts | 260° |
| 2026-04-18 11:21 | 63.89276 | -24.69188 | 31604 ft | 353 kts | 260° |
| 2026-04-18 11:22 | 63.88970 | -24.74758 | 31874 ft | 357 kts | 260° |
| 2026-04-18 11:22 | 63.88662 | -24.80313 | 32128 ft | 362 kts | 260° |
| 2026-04-18 11:22 | 63.88255 | -24.86046 | 32480 ft | 365 kts | 256° |
| 2026-04-18 11:22 | 63.87686 | -24.91613 | 32802 ft | 368 kts | 252° |
| 2026-04-18 11:23 | 63.86964 | -24.97190 | 33223 ft | 369 kts | 251° |
| 2026-04-18 11:23 | 63.86234 | -25.02804 | 33588 ft | 372 kts | 251° |
| 2026-04-18 11:23 | 63.85504 | -25.08460 | 33969 ft | 374 kts | 251° |
| 2026-04-18 11:23 | 63.84769 | -25.14138 | 34318 ft | 376 kts | 251° |
| 2026-04-18 11:24 | 63.84027 | -25.19830 | 34706 ft | 377 kts | 251° |
| 2026-04-18 11:24 | 63.83282 | -25.25518 | 35107 ft | 378 kts | 251° |
| 2026-04-18 11:24 | 63.82530 | -25.31232 | 35480 ft | 379 kts | 251° |
| 2026-04-18 11:24 | 63.81775 | -25.36955 | 35838 ft | 380 kts | 251° |
| 2026-04-18 11:25 | 63.81015 | -25.42702 | 36203 ft | 381 kts | 251° |
| 2026-04-18 11:25 | 63.80251 | -25.48450 | 36537 ft | 382 kts | 250° |
| 2026-04-18 11:25 | 63.79485 | -25.54206 | 36919 ft | 382 kts | 250° |
| 2026-04-18 11:25 | 63.78717 | -25.59944 | 37342 ft | 380 kts | 250° |
| 2026-04-18 11:26 | 63.77962 | -25.65572 | 37730 ft | 379 kts | 250° |
| 2026-04-18 11:26 | 63.77194 | -25.71285 | 38046 ft | 380 kts | 250° |
| 2026-04-18 11:26 | 63.76420 | -25.77007 | 38349 ft | 381 kts | 250° |
| 2026-04-18 11:26 | 63.75642 | -25.82735 | 38632 ft | 382 kts | 250° |
| 2026-04-18 11:27 | 63.74858 | -25.88485 | 38905 ft | 384 kts | 250° |
| 2026-04-18 11:27 | 63.74071 | -25.94247 | 39174 ft | 385 kts | 250° |
| 2026-04-18 11:27 | 63.73277 | -26.00035 | 39438 ft | 386 kts | 250° |
| 2026-04-18 11:27 | 63.72479 | -26.05838 | 39682 ft | 387 kts | 250° |
| 2026-04-18 11:28 | 63.70855 | -26.17571 | 39745 ft | 400 kts | 250° |
| 2026-04-18 11:28 | 63.69158 | -26.29744 | 39764 ft | 412 kts | 250° |
| 2026-04-18 11:29 | 63.67413 | -26.42190 | 39770 ft | 417 kts | 250° |
| 2026-04-18 11:29 | 63.65657 | -26.54638 | 39765 ft | 417 kts | 249° |
| 2026-04-18 11:30 | 63.63885 | -26.67085 | 39761 ft | 417 kts | 249° |
| 2026-04-18 11:30 | 63.62118 | -26.79409 | 39758 ft | 417 kts | 249° |
| 2026-04-18 11:31 | 63.60329 | -26.91794 | 39757 ft | 416 kts | 249° |
| 2026-04-18 11:31 | 63.58529 | -27.04158 | 39756 ft | 416 kts | 249° |
| 2026-04-18 11:32 | 63.56488 | -27.16277 | 39755 ft | 415 kts | 244° |
| 2026-04-18 11:32 | 63.54197 | -27.28160 | 39750 ft | 415 kts | 244° |
| 2026-04-18 11:33 | 63.51913 | -27.40083 | 39685 ft | 417 kts | 244° |
| 2026-04-18 11:33 | 63.49660 | -27.51971 | 39669 ft | 417 kts | 244° |
| 2026-04-18 11:34 | 63.47385 | -27.63992 | 39664 ft | 417 kts | 244° |
| 2026-04-18 11:34 | 63.45134 | -27.75851 | 39670 ft | 417 kts | 244° |
| 2026-04-18 11:35 | 63.42860 | -27.87771 | 39672 ft | 417 kts | 244° |
| 2026-04-18 11:35 | 63.40571 | -27.99680 | 39672 ft | 417 kts | 243° |
| 2026-04-18 11:36 | 63.38274 | -28.11563 | 39673 ft | 417 kts | 243° |
| 2026-04-18 11:36 | 63.35971 | -28.23415 | 39672 ft | 417 kts | 243° |
| 2026-04-18 11:37 | 63.33655 | -28.35250 | 39673 ft | 416 kts | 243° |
| 2026-04-18 11:37 | 63.31332 | -28.47061 | 39673 ft | 416 kts | 243° |
| 2026-04-18 11:38 | 63.29003 | -28.58837 | 39674 ft | 416 kts | 243° |
| 2026-04-18 11:38 | 63.26681 | -28.70507 | 39673 ft | 416 kts | 243° |
| 2026-04-18 11:39 | 63.24330 | -28.82251 | 39673 ft | 415 kts | 243° |
| 2026-04-18 11:39 | 63.21978 | -28.93947 | 39673 ft | 415 kts | 243° |
| 2026-04-18 11:40 | 63.19615 | -29.05616 | 39673 ft | 415 kts | 243° |
| 2026-04-18 11:40 | 63.17245 | -29.17265 | 39673 ft | 415 kts | 243° |
| 2026-04-18 11:41 | 63.14861 | -29.28913 | 39673 ft | 414 kts | 243° |
| 2026-04-18 11:41 | 63.12488 | -29.40432 | 39680 ft | 414 kts | 243° |
| 2026-04-18 11:42 | 63.10093 | -29.51999 | 39682 ft | 414 kts | 242° |
| 2026-04-18 11:42 | 63.07686 | -29.63562 | 39683 ft | 414 kts | 242° |
| 2026-04-18 11:43 | 63.05273 | -29.75090 | 39682 ft | 414 kts | 242° |
| 2026-04-18 11:43 | 63.02850 | -29.86597 | 39684 ft | 414 kts | 242° |
| 2026-04-18 11:44 | 63.00420 | -29.98087 | 39684 ft | 414 kts | 242° |
| 2026-04-18 11:44 | 62.97918 | -30.09473 | 39681 ft | 413 kts | 240° |
| 2026-04-18 11:45 | 62.95311 | -30.20701 | 39684 ft | 412 kts | 240° |
| 2026-04-18 11:45 | 62.92696 | -30.31934 | 39684 ft | 413 kts | 240° |
| 2026-04-18 11:46 | 62.90104 | -30.43073 | 39684 ft | 412 kts | 240° |
| 2026-04-18 11:46 | 62.87489 | -30.54278 | 39684 ft | 412 kts | 240° |
| 2026-04-18 11:47 | 62.84871 | -30.65454 | 39684 ft | 412 kts | 240° |
| 2026-04-18 11:47 | 62.82244 | -30.76619 | 39682 ft | 412 kts | 240° |
| 2026-04-18 11:48 | 62.79615 | -30.87730 | 39684 ft | 412 kts | 240° |
| 2026-04-18 11:48 | 62.76972 | -30.98839 | 39681 ft | 412 kts | 240° |
| 2026-04-18 11:49 | 62.74321 | -31.09931 | 39683 ft | 412 kts | 239° |
| 2026-04-18 11:49 | 62.71680 | -31.20922 | 39681 ft | 412 kts | 239° |
| 2026-04-18 11:50 | 62.69010 | -31.31966 | 39676 ft | 412 kts | 239° |
| 2026-04-18 11:50 | 62.66334 | -31.42998 | 39674 ft | 412 kts | 239° |
| 2026-04-18 11:51 | 62.63651 | -31.54000 | 39674 ft | 412 kts | 239° |
| 2026-04-18 11:51 | 62.60975 | -31.64913 | 39673 ft | 411 kts | 239° |
| 2026-04-18 11:52 | 62.58275 | -31.75872 | 39673 ft | 411 kts | 239° |
| 2026-04-18 11:52 | 62.55569 | -31.86803 | 39674 ft | 411 kts | 239° |
| 2026-04-18 11:53 | 62.52855 | -31.97705 | 39673 ft | 411 kts | 239° |
| 2026-04-18 11:53 | 62.50596 | -32.06745 | 39673 ft | 410 kts | 239° |
| 2026-04-18 11:54 | 62.47871 | -32.17596 | 39673 ft | 410 kts | 239° |
| 2026-04-18 11:54 | 62.44692 | -32.30187 | 39674 ft | 410 kts | 239° |
| 2026-04-18 11:55 | 62.42389 | -32.39262 | 39674 ft | 410 kts | 238° |
| 2026-04-18 11:55 | 62.39638 | -32.50050 | 39674 ft | 410 kts | 238° |
| 2026-04-18 11:56 | 62.36882 | -32.60815 | 39673 ft | 410 kts | 238° |
| 2026-04-18 11:56 | 62.34134 | -32.71493 | 39674 ft | 410 kts | 238° |
| 2026-04-18 11:57 | 62.31355 | -32.82236 | 39673 ft | 410 kts | 238° |
| 2026-04-18 11:57 | 62.28572 | -32.92949 | 39673 ft | 410 kts | 238° |
| 2026-04-18 11:58 | 62.25778 | -33.03646 | 39673 ft | 410 kts | 238° |
| 2026-04-18 11:58 | 62.22977 | -33.14321 | 39673 ft | 410 kts | 238° |
| 2026-04-18 11:59 | 62.20169 | -33.24975 | 39667 ft | 411 kts | 237° |
| 2026-04-18 11:59 | 62.17356 | -33.35601 | 39665 ft | 410 kts | 237° |
| 2026-04-18 12:00 | 62.14546 | -33.46164 | 39664 ft | 410 kts | 237° |
| 2026-04-18 12:00 | 62.11714 | -33.56755 | 39664 ft | 410 kts | 237° |
| 2026-04-18 12:01 | 62.07455 | -33.72595 | 39665 ft | 410 kts | 237° |
| 2026-04-18 12:02 | 62.04606 | -33.83121 | 39665 ft | 409 kts | 237° |
| 2026-04-18 12:02 | 62.01747 | -33.93640 | 39665 ft | 410 kts | 237° |
| 2026-04-18 12:03 | 61.98909 | -34.04172 | 39664 ft | 410 kts | 239° |
| 2026-04-18 12:03 | 61.96407 | -34.15112 | 39664 ft | 411 kts | 242° |
| 2026-04-18 12:04 | 61.93969 | -34.26101 | 39664 ft | 411 kts | 241° |
| 2026-04-18 12:04 | 61.91505 | -34.36947 | 39664 ft | 411 kts | 241° |
| 2026-04-18 12:05 | 61.88988 | -34.47839 | 39664 ft | 410 kts | 240° |
| 2026-04-18 12:05 | 61.86459 | -34.58684 | 39664 ft | 410 kts | 240° |
| 2026-04-18 12:06 | 61.83923 | -34.69497 | 39665 ft | 410 kts | 240° |
| 2026-04-18 12:06 | 61.81386 | -34.80244 | 39665 ft | 410 kts | 240° |
| 2026-04-18 12:07 | 61.78837 | -34.91006 | 39664 ft | 409 kts | 240° |
| 2026-04-18 12:07 | 61.76277 | -35.01751 | 39664 ft | 409 kts | 240° |
| 2026-04-18 12:08 | 61.73710 | -35.12478 | 39657 ft | 409 kts | 240° |
| 2026-04-18 12:08 | 61.71134 | -35.23183 | 39656 ft | 409 kts | 240° |
| 2026-04-18 12:09 | 61.68550 | -35.33876 | 39656 ft | 409 kts | 240° |
| 2026-04-18 12:09 | 61.65954 | -35.44551 | 39657 ft | 409 kts | 240° |
| 2026-04-18 12:10 | 61.63353 | -35.55210 | 39654 ft | 410 kts | 240° |
| 2026-04-18 12:10 | 61.60740 | -35.65864 | 39654 ft | 409 kts | 239° |
| 2026-04-18 12:11 | 61.58122 | -35.76489 | 39656 ft | 409 kts | 239° |
| 2026-04-18 12:11 | 61.55509 | -35.87039 | 39656 ft | 410 kts | 239° |
| 2026-04-18 12:12 | 61.52874 | -35.97633 | 39655 ft | 410 kts | 239° |
| 2026-04-18 12:12 | 61.50230 | -36.08204 | 39656 ft | 410 kts | 239° |
| 2026-04-18 12:13 | 61.47578 | -36.18751 | 39648 ft | 410 kts | 239° |
| 2026-04-18 12:13 | 61.44914 | -36.29300 | 39646 ft | 410 kts | 239° |
| 2026-04-18 12:14 | 61.42245 | -36.39823 | 39647 ft | 409 kts | 238° |
| 2026-04-18 12:14 | 61.39571 | -36.50313 | 39647 ft | 409 kts | 238° |
| 2026-04-18 12:15 | 61.36891 | -36.60779 | 39643 ft | 409 kts | 238° |
| 2026-04-18 12:15 | 61.34199 | -36.71241 | 39638 ft | 409 kts | 238° |
| 2026-04-18 12:16 | 61.31500 | -36.81678 | 39637 ft | 409 kts | 238° |
| 2026-04-18 12:16 | 61.28798 | -36.92082 | 39636 ft | 409 kts | 238° |
| 2026-04-18 12:17 | 61.26104 | -37.02405 | 39636 ft | 408 kts | 238° |
| 2026-04-18 12:17 | 61.23386 | -37.12772 | 39636 ft | 408 kts | 238° |
| 2026-04-18 12:18 | 61.20664 | -37.23103 | 39611 ft | 408 kts | 238° |
| 2026-04-18 12:18 | 61.17930 | -37.33434 | 39601 ft | 408 kts | 238° |
| 2026-04-18 12:19 | 61.15203 | -37.43694 | 39599 ft | 408 kts | 238° |
| 2026-04-18 12:19 | 61.12453 | -37.53990 | 39599 ft | 408 kts | 237° |
| 2026-04-18 12:20 | 61.09704 | -37.64245 | 39598 ft | 408 kts | 237° |
| 2026-04-18 12:20 | 61.06942 | -37.74492 | 39599 ft | 408 kts | 237° |
| 2026-04-18 12:21 | 61.04174 | -37.84716 | 39595 ft | 408 kts | 237° |
| 2026-04-18 12:21 | 61.01395 | -37.94934 | 39590 ft | 408 kts | 237° |
| 2026-04-18 12:22 | 60.98665 | -38.05182 | 39616 ft | 408 kts | 240° |
| 2026-04-18 12:22 | 60.96267 | -38.15794 | 39646 ft | 408 kts | 242° |
| 2026-04-18 12:23 | 60.93921 | -38.26345 | 39653 ft | 408 kts | 242° |
| 2026-04-18 12:23 | 60.91517 | -38.36921 | 39655 ft | 407 kts | 241° |
| 2026-04-18 12:24 | 60.89086 | -38.47436 | 39648 ft | 407 kts | 241° |
| 2026-04-18 12:24 | 60.86639 | -38.57927 | 39646 ft | 407 kts | 240° |
| 2026-04-18 12:25 | 60.84186 | -38.68385 | 39646 ft | 407 kts | 240° |
| 2026-04-18 12:25 | 60.81720 | -38.78844 | 39646 ft | 407 kts | 240° |
| 2026-04-18 12:26 | 60.79260 | -38.89221 | 39645 ft | 408 kts | 240° |
| 2026-04-18 12:26 | 60.76778 | -38.99654 | 39642 ft | 408 kts | 240° |
| 2026-04-18 12:27 | 60.74284 | -39.10087 | 39638 ft | 408 kts | 240° |
| 2026-04-18 12:27 | 60.71783 | -39.20500 | 39637 ft | 408 kts | 240° |
| 2026-04-18 12:28 | 60.69272 | -39.30900 | 39636 ft | 408 kts | 240° |
| 2026-04-18 12:28 | 60.66768 | -39.41221 | 39637 ft | 408 kts | 240° |
| 2026-04-18 12:29 | 60.64242 | -39.51583 | 39636 ft | 408 kts | 240° |
| 2026-04-18 12:29 | 60.61706 | -39.61939 | 39630 ft | 408 kts | 240° |
| 2026-04-18 12:30 | 60.59160 | -39.72284 | 39628 ft | 408 kts | 240° |
| 2026-04-18 12:30 | 60.56609 | -39.82601 | 39627 ft | 408 kts | 239° |
| 2026-04-18 12:31 | 60.54045 | -39.92923 | 39627 ft | 408 kts | 239° |
| 2026-04-18 12:31 | 60.51475 | -40.03214 | 39627 ft | 409 kts | 239° |
| 2026-04-18 12:32 | 60.48895 | -40.13505 | 39625 ft | 409 kts | 239° |
| 2026-04-18 12:32 | 60.46326 | -40.23716 | 39619 ft | 409 kts | 239° |
| 2026-04-18 12:33 | 60.43734 | -40.33962 | 39617 ft | 408 kts | 239° |
| 2026-04-18 12:33 | 60.41130 | -40.44203 | 39617 ft | 408 kts | 239° |
| 2026-04-18 12:34 | 60.38524 | -40.54411 | 39617 ft | 408 kts | 239° |
| 2026-04-18 12:34 | 60.35912 | -40.64593 | 39617 ft | 408 kts | 239° |
| 2026-04-18 12:35 | 60.33290 | -40.74760 | 39616 ft | 408 kts | 239° |
| 2026-04-18 12:35 | 60.30653 | -40.84941 | 39610 ft | 409 kts | 239° |
| 2026-04-18 12:36 | 60.28026 | -40.95046 | 39608 ft | 409 kts | 239° |
| 2026-04-18 12:36 | 60.25371 | -41.05207 | 39608 ft | 410 kts | 239° |
| 2026-04-18 12:37 | 60.22706 | -41.15356 | 39608 ft | 410 kts | 239° |
| 2026-04-18 12:37 | 60.20031 | -41.25497 | 39608 ft | 410 kts | 239° |
| 2026-04-18 12:38 | 60.17347 | -41.35630 | 39608 ft | 411 kts | 239° |
| 2026-04-18 12:38 | 60.14649 | -41.45769 | 39609 ft | 411 kts | 239° |
| 2026-04-18 12:39 | 60.11963 | -41.55819 | 39603 ft | 412 kts | 239° |
| 2026-04-18 12:39 | 60.09246 | -41.65943 | 39602 ft | 412 kts | 239° |
| 2026-04-18 12:40 | 60.06518 | -41.76055 | 39599 ft | 412 kts | 239° |
| 2026-04-18 12:40 | 60.03785 | -41.86147 | 39599 ft | 412 kts | 239° |
| 2026-04-18 12:41 | 60.01043 | -41.96225 | 39605 ft | 412 kts | 239° |
| 2026-04-18 12:41 | 59.98316 | -42.06247 | 39599 ft | 412 kts | 240° |
| 2026-04-18 12:42 | 59.95602 | -42.16329 | 39598 ft | 412 kts | 240° |
| 2026-04-18 12:42 | 59.92879 | -42.26400 | 39598 ft | 412 kts | 239° |
| 2026-04-18 12:43 | 59.90607 | -42.34758 | 39598 ft | 412 kts | 239° |
| 2026-04-18 12:43 | 59.87864 | -42.44803 | 39598 ft | 413 kts | 239° |
| 2026-04-18 12:44 | 59.85111 | -42.54831 | 39605 ft | 413 kts | 239° |
| 2026-04-18 12:44 | 59.82348 | -42.64856 | 39603 ft | 414 kts | 239° |
| 2026-04-18 12:45 | 59.79574 | -42.74874 | 39592 ft | 414 kts | 239° |
| 2026-04-18 12:45 | 59.76786 | -42.84902 | 39590 ft | 414 kts | 239° |
| 2026-04-18 12:46 | 59.73995 | -42.94892 | 39588 ft | 414 kts | 239° |
| 2026-04-18 12:46 | 59.71191 | -43.04879 | 39588 ft | 414 kts | 239° |
| 2026-04-18 12:47 | 59.68388 | -43.14825 | 39588 ft | 414 kts | 239° |
| 2026-04-18 12:47 | 59.65596 | -43.24691 | 39588 ft | 413 kts | 239° |
| 2026-04-18 12:48 | 59.62774 | -43.34621 | 39588 ft | 413 kts | 239° |
| 2026-04-18 12:48 | 59.59953 | -43.44504 | 39588 ft | 413 kts | 239° |
| 2026-04-18 12:49 | 59.57121 | -43.54377 | 39588 ft | 413 kts | 239° |
| 2026-04-18 12:49 | 59.54280 | -43.64242 | 39588 ft | 413 kts | 239° |
| 2026-04-18 12:50 | 59.51451 | -43.74024 | 39589 ft | 414 kts | 239° |
| 2026-04-18 12:50 | 59.48593 | -43.83862 | 39589 ft | 414 kts | 239° |
| 2026-04-18 12:51 | 59.45729 | -43.93678 | 39589 ft | 414 kts | 239° |
| 2026-04-18 12:51 | 59.42856 | -44.03487 | 39589 ft | 414 kts | 239° |
| 2026-04-18 12:52 | 59.39978 | -44.13269 | 39589 ft | 414 kts | 239° |
| 2026-04-18 12:52 | 59.37089 | -44.23046 | 39597 ft | 414 kts | 239° |
| 2026-04-18 12:53 | 59.34192 | -44.32815 | 39598 ft | 414 kts | 239° |
| 2026-04-18 12:53 | 59.31288 | -44.42562 | 39598 ft | 414 kts | 239° |
| 2026-04-18 12:54 | 59.28395 | -44.52234 | 39598 ft | 414 kts | 239° |
| 2026-04-18 12:54 | 59.25476 | -44.61949 | 39598 ft | 414 kts | 239° |
| 2026-04-18 12:55 | 59.22550 | -44.71647 | 39599 ft | 415 kts | 239° |
| 2026-04-18 12:55 | 59.19605 | -44.81364 | 39570 ft | 417 kts | 238° |
| 2026-04-18 12:56 | 59.16613 | -44.91187 | 39566 ft | 424 kts | 238° |
| 2026-04-18 12:56 | 59.13577 | -45.01124 | 39569 ft | 428 kts | 238° |
| 2026-04-18 12:57 | 59.10525 | -45.11073 | 39564 ft | 427 kts | 238° |
| 2026-04-18 12:57 | 59.07471 | -45.20988 | 39560 ft | 428 kts | 238° |
| 2026-04-18 12:58 | 59.04393 | -45.30934 | 39568 ft | 430 kts | 238° |
| 2026-04-18 12:58 | 59.01299 | -45.40886 | 39570 ft | 431 kts | 238° |
| 2026-04-18 12:59 | 58.98211 | -45.50771 | 39563 ft | 431 kts | 238° |
| 2026-04-18 12:59 | 58.95101 | -45.60689 | 39560 ft | 430 kts | 238° |
| 2026-04-18 13:00 | 58.91984 | -45.70587 | 39563 ft | 430 kts | 238° |
| 2026-04-18 13:00 | 58.88860 | -45.80467 | 39559 ft | 430 kts | 238° |
| 2026-04-18 13:01 | 58.85728 | -45.90333 | 39563 ft | 430 kts | 238° |
| 2026-04-18 13:01 | 58.82593 | -46.00165 | 39559 ft | 430 kts | 238° |
| 2026-04-18 13:02 | 58.79447 | -46.09990 | 39563 ft | 431 kts | 238° |
| 2026-04-18 13:02 | 58.76286 | -46.19823 | 39574 ft | 431 kts | 238° |
| 2026-04-18 13:03 | 58.73122 | -46.29625 | 39578 ft | 431 kts | 238° |
| 2026-04-18 13:03 | 58.68381 | -46.44229 | 39580 ft | 431 kts | 238° |
| 2026-04-18 13:04 | 58.65196 | -46.53994 | 39586 ft | 431 kts | 238° |
| 2026-04-18 13:04 | 58.61997 | -46.63758 | 39588 ft | 431 kts | 238° |
| 2026-04-18 13:05 | 58.58792 | -46.73502 | 39589 ft | 432 kts | 238° |
| 2026-04-18 13:05 | 58.55596 | -46.83178 | 39589 ft | 432 kts | 238° |
| 2026-04-18 13:06 | 58.52375 | -46.92886 | 39595 ft | 432 kts | 238° |
| 2026-04-18 13:06 | 58.48932 | -47.02323 | 39597 ft | 433 kts | 233° |
| 2026-04-18 13:07 | 58.45074 | -47.11155 | 39599 ft | 433 kts | 230° |
| 2026-04-18 13:07 | 58.41117 | -47.19841 | 39605 ft | 434 kts | 230° |
| 2026-04-18 13:08 | 58.37164 | -47.28519 | 39607 ft | 434 kts | 230° |
| 2026-04-18 13:08 | 58.33204 | -47.37213 | 39608 ft | 434 kts | 231° |
| 2026-04-18 13:09 | 58.29240 | -47.45894 | 39614 ft | 435 kts | 231° |
| 2026-04-18 13:09 | 58.25269 | -47.54564 | 39617 ft | 435 kts | 231° |
| 2026-04-18 13:10 | 58.21316 | -47.63164 | 39620 ft | 435 kts | 231° |
| 2026-04-18 13:10 | 58.17329 | -47.71809 | 39625 ft | 435 kts | 231° |
| 2026-04-18 13:11 | 58.13337 | -47.80431 | 39627 ft | 435 kts | 231° |
| 2026-04-18 13:11 | 58.09343 | -47.89027 | 39634 ft | 435 kts | 231° |
| 2026-04-18 13:12 | 58.05340 | -47.97614 | 39636 ft | 435 kts | 231° |
| 2026-04-18 13:12 | 58.01329 | -48.06179 | 39643 ft | 435 kts | 231° |
| 2026-04-18 13:13 | 57.97314 | -48.14719 | 39645 ft | 435 kts | 230° |
| 2026-04-18 13:13 | 57.93286 | -48.23257 | 39651 ft | 435 kts | 230° |
| 2026-04-18 13:14 | 57.89258 | -48.31769 | 39654 ft | 436 kts | 230° |
| 2026-04-18 13:14 | 57.85244 | -48.40216 | 39657 ft | 436 kts | 230° |
| 2026-04-18 13:15 | 57.81202 | -48.48692 | 39663 ft | 436 kts | 230° |
| 2026-04-18 13:15 | 57.77151 | -48.57160 | 39668 ft | 436 kts | 231° |
| 2026-04-18 13:16 | 57.73092 | -48.65610 | 39673 ft | 436 kts | 231° |
| 2026-04-18 13:16 | 57.69023 | -48.74052 | 39678 ft | 437 kts | 231° |
| 2026-04-18 13:17 | 57.64952 | -48.82469 | 39682 ft | 437 kts | 231° |
| 2026-04-18 13:17 | 57.60862 | -48.90892 | 39690 ft | 438 kts | 231° |
| 2026-04-18 13:18 | 57.56768 | -48.99290 | 39694 ft | 438 kts | 231° |
| 2026-04-18 13:18 | 57.52685 | -49.07639 | 39693 ft | 439 kts | 231° |
| 2026-04-18 13:19 | 57.48565 | -49.16030 | 39707 ft | 439 kts | 231° |
| 2026-04-18 13:19 | 57.44438 | -49.24412 | 39711 ft | 439 kts | 231° |
| 2026-04-18 13:20 | 57.40305 | -49.32774 | 39718 ft | 440 kts | 231° |
| 2026-04-18 13:20 | 57.36164 | -49.41119 | 39722 ft | 440 kts | 231° |
| 2026-04-18 13:21 | 57.32012 | -49.49453 | 39728 ft | 440 kts | 231° |
| 2026-04-18 13:21 | 57.27879 | -49.57725 | 39735 ft | 441 kts | 231° |
| 2026-04-18 13:22 | 57.23702 | -49.66057 | 39742 ft | 441 kts | 231° |
| 2026-04-18 13:22 | 57.19523 | -49.74356 | 39747 ft | 441 kts | 231° |
| 2026-04-18 13:23 | 57.15337 | -49.82641 | 39754 ft | 441 kts | 231° |
| 2026-04-18 13:23 | 57.11151 | -49.90895 | 39761 ft | 441 kts | 231° |
| 2026-04-18 13:24 | 57.06958 | -49.99141 | 39767 ft | 441 kts | 231° |
| 2026-04-18 13:24 | 57.02760 | -50.07364 | 39774 ft | 441 kts | 231° |
| 2026-04-18 13:25 | 56.98577 | -50.15526 | 39781 ft | 442 kts | 231° |
| 2026-04-18 13:25 | 56.94354 | -50.23736 | 39788 ft | 442 kts | 231° |
| 2026-04-18 13:26 | 56.90131 | -50.31925 | 39794 ft | 442 kts | 231° |
| 2026-04-18 13:26 | 56.85898 | -50.40099 | 39802 ft | 443 kts | 231° |
| 2026-04-18 13:27 | 56.81659 | -50.48257 | 39810 ft | 443 kts | 231° |
| 2026-04-18 13:27 | 56.77416 | -50.56396 | 39821 ft | 443 kts | 231° |
| 2026-04-18 13:28 | 56.73159 | -50.64528 | 39823 ft | 443 kts | 231° |
| 2026-04-18 13:28 | 56.68899 | -50.72637 | 39831 ft | 443 kts | 231° |
| 2026-04-18 13:29 | 56.64665 | -50.80666 | 39843 ft | 443 kts | 231° |
| 2026-04-18 13:29 | 56.60388 | -50.88749 | 39847 ft | 443 kts | 231° |
| 2026-04-18 13:30 | 56.56109 | -50.96818 | 39856 ft | 444 kts | 231° |
| 2026-04-18 13:30 | 56.52540 | -51.03525 | 39862 ft | 444 kts | 231° |
| 2026-04-18 13:31 | 56.48248 | -51.11560 | 39870 ft | 444 kts | 231° |
| 2026-04-18 13:31 | 56.43941 | -51.19592 | 39877 ft | 444 kts | 231° |
| 2026-04-18 13:32 | 56.39629 | -51.27609 | 39886 ft | 444 kts | 231° |
| 2026-04-18 13:32 | 56.35320 | -51.35592 | 39894 ft | 444 kts | 231° |
| 2026-04-18 13:33 | 56.31024 | -51.43525 | 39903 ft | 444 kts | 232° |
| 2026-04-18 13:33 | 56.26702 | -51.51479 | 39912 ft | 445 kts | 231° |
| 2026-04-18 13:34 | 56.22368 | -51.59426 | 39920 ft | 445 kts | 232° |
| 2026-04-18 13:34 | 56.18027 | -51.67362 | 39929 ft | 445 kts | 232° |
| 2026-04-18 13:35 | 56.13685 | -51.75270 | 39964 ft | 445 kts | 232° |
| 2026-04-18 13:35 | 56.09343 | -51.83151 | 40045 ft | 444 kts | 232° |
| 2026-04-18 13:36 | 56.05001 | -51.91004 | 40076 ft | 444 kts | 231° |
| 2026-04-18 13:36 | 56.00679 | -51.98906 | 40085 ft | 444 kts | 233° |
| 2026-04-18 13:37 | 55.96602 | -52.07118 | 40091 ft | 441 kts | 236° |
| 2026-04-18 13:37 | 55.92721 | -52.15604 | 40099 ft | 441 kts | 237° |
| 2026-04-18 13:38 | 55.88847 | -52.24084 | 40105 ft | 441 kts | 237° |
| 2026-04-18 13:38 | 55.84970 | -52.32476 | 40109 ft | 441 kts | 237° |
| 2026-04-18 13:39 | 55.81028 | -52.40938 | 40117 ft | 441 kts | 237° |
| 2026-04-18 13:39 | 55.77127 | -52.49269 | 40122 ft | 441 kts | 237° |
| 2026-04-18 13:40 | 55.73191 | -52.57644 | 40127 ft | 441 kts | 237° |
| 2026-04-18 13:40 | 55.69238 | -52.66024 | 40134 ft | 441 kts | 237° |
| 2026-04-18 13:41 | 55.65316 | -52.74312 | 40137 ft | 441 kts | 237° |
| 2026-04-18 13:41 | 55.61366 | -52.82629 | 40156 ft | 441 kts | 237° |
| 2026-04-18 13:42 | 55.57410 | -52.90930 | 40163 ft | 441 kts | 237° |
| 2026-04-18 13:42 | 55.53443 | -52.99225 | 40170 ft | 441 kts | 237° |
| 2026-04-18 13:43 | 55.49468 | -53.07511 | 40173 ft | 442 kts | 237° |
| 2026-04-18 13:43 | 55.45515 | -53.15721 | 40177 ft | 442 kts | 237° |
| 2026-04-18 13:44 | 55.41535 | -53.23959 | 40193 ft | 442 kts | 237° |
| 2026-04-18 13:44 | 55.37548 | -53.32182 | 40228 ft | 441 kts | 237° |
| 2026-04-18 13:45 | 55.33560 | -53.40382 | 40235 ft | 441 kts | 237° |
| 2026-04-18 13:45 | 55.29563 | -53.48571 | 40241 ft | 441 kts | 237° |
| 2026-04-18 13:46 | 55.25560 | -53.56746 | 40245 ft | 442 kts | 237° |
| 2026-04-18 13:46 | 55.21548 | -53.64911 | 40246 ft | 442 kts | 237° |
| 2026-04-18 13:47 | 55.17551 | -53.73017 | 40251 ft | 442 kts | 237° |
| 2026-04-18 13:47 | 55.13534 | -53.81136 | 40269 ft | 441 kts | 237° |
| 2026-04-18 13:48 | 55.09506 | -53.89250 | 40273 ft | 442 kts | 237° |
| 2026-04-18 13:48 | 55.05473 | -53.97349 | 40275 ft | 442 kts | 237° |
| 2026-04-18 13:49 | 55.01437 | -54.05425 | 40282 ft | 442 kts | 237° |
| 2026-04-18 13:49 | 54.97399 | -54.13478 | 40292 ft | 441 kts | 237° |
| 2026-04-18 13:50 | 54.93363 | -54.21501 | 40293 ft | 440 kts | 237° |
| 2026-04-18 13:50 | 54.89324 | -54.29504 | 40294 ft | 441 kts | 237° |
| 2026-04-18 13:51 | 54.85296 | -54.37458 | 40293 ft | 441 kts | 237° |
| 2026-04-18 13:51 | 54.81243 | -54.45436 | 40294 ft | 440 kts | 237° |
| 2026-04-18 13:52 | 54.77184 | -54.53397 | 40294 ft | 440 kts | 237° |
| 2026-04-18 13:52 | 54.73131 | -54.61321 | 40301 ft | 440 kts | 237° |
| 2026-04-18 13:53 | 54.69072 | -54.69232 | 40302 ft | 440 kts | 237° |
| 2026-04-18 13:53 | 54.65004 | -54.77142 | 40302 ft | 440 kts | 236° |
| 2026-04-18 13:54 | 54.60931 | -54.85027 | 40303 ft | 440 kts | 237° |
| 2026-04-18 13:54 | 54.56875 | -54.92854 | 40303 ft | 440 kts | 236° |
| 2026-04-18 13:55 | 54.52797 | -55.00695 | 40303 ft | 439 kts | 237° |
| 2026-04-18 13:55 | 54.48709 | -55.08534 | 40308 ft | 439 kts | 237° |
| 2026-04-18 13:56 | 54.44628 | -55.16330 | 40308 ft | 438 kts | 237° |
| 2026-04-18 13:56 | 54.40547 | -55.24104 | 40310 ft | 438 kts | 237° |
| 2026-04-18 13:57 | 54.36482 | -55.31823 | 40313 ft | 438 kts | 237° |
| 2026-04-18 13:57 | 54.32379 | -55.39596 | 40315 ft | 439 kts | 237° |
| 2026-04-18 13:58 | 54.28279 | -55.47321 | 40314 ft | 438 kts | 237° |
| 2026-04-18 13:58 | 54.24192 | -55.55011 | 40310 ft | 436 kts | 237° |
| 2026-04-18 13:59 | 54.20137 | -55.62623 | 40312 ft | 436 kts | 237° |
| 2026-04-18 13:59 | 54.16054 | -55.70254 | 40310 ft | 434 kts | 237° |
| 2026-04-18 14:00 | 54.11981 | -55.77829 | 40311 ft | 434 kts | 237° |
| 2026-04-18 14:00 | 54.07894 | -55.85416 | 40312 ft | 433 kts | 237° |
| 2026-04-18 14:01 | 54.03802 | -55.92984 | 40313 ft | 434 kts | 237° |
| 2026-04-18 14:01 | 53.99714 | -56.00540 | 40311 ft | 434 kts | 237° |
| 2026-04-18 14:02 | 53.95712 | -56.08114 | 40317 ft | 433 kts | 238° |
| 2026-04-18 14:02 | 53.91721 | -56.15771 | 40319 ft | 433 kts | 238° |
| 2026-04-18 14:03 | 53.87723 | -56.23418 | 40323 ft | 435 kts | 238° |
| 2026-04-18 14:03 | 53.83700 | -56.31067 | 40323 ft | 435 kts | 238° |
| 2026-04-18 14:04 | 53.79665 | -56.38690 | 40321 ft | 433 kts | 237° |
| 2026-04-18 14:04 | 53.75639 | -56.46277 | 40323 ft | 434 kts | 238° |
| 2026-04-18 14:05 | 53.71592 | -56.53878 | 40325 ft | 434 kts | 238° |
| 2026-04-18 14:05 | 53.67546 | -56.61448 | 40324 ft | 433 kts | 237° |
| 2026-04-18 14:06 | 53.63527 | -56.68945 | 40323 ft | 434 kts | 238° |
| 2026-04-18 14:06 | 53.59477 | -56.76475 | 40325 ft | 433 kts | 238° |
| 2026-04-18 14:07 | 53.55428 | -56.83984 | 40330 ft | 433 kts | 238° |
| 2026-04-18 14:07 | 53.51378 | -56.91491 | 40326 ft | 433 kts | 237° |
| 2026-04-18 14:08 | 53.45281 | -57.02711 | 40325 ft | 433 kts | 237° |
| 2026-04-18 14:09 | 53.41209 | -57.10175 | 40320 ft | 433 kts | 237° |
| 2026-04-18 14:09 | 53.37160 | -57.17579 | 40334 ft | 434 kts | 238° |
| 2026-04-18 14:10 | 53.33082 | -57.25019 | 40324 ft | 433 kts | 237° |
| 2026-04-18 14:10 | 53.29002 | -57.32434 | 40329 ft | 433 kts | 237° |
| 2026-04-18 14:11 | 53.24924 | -57.39823 | 40321 ft | 432 kts | 237° |
| 2026-04-18 14:11 | 53.20843 | -57.47204 | 40322 ft | 433 kts | 237° |
| 2026-04-18 14:12 | 53.16752 | -57.54581 | 40327 ft | 433 kts | 237° |
| 2026-04-18 14:12 | 53.12654 | -57.61942 | 40324 ft | 433 kts | 237° |
| 2026-04-18 14:13 | 53.08555 | -57.69277 | 40320 ft | 432 kts | 237° |
| 2026-04-18 14:13 | 53.04454 | -57.76603 | 40316 ft | 432 kts | 237° |
| 2026-04-18 14:14 | 53.00374 | -57.83867 | 40326 ft | 432 kts | 237° |
| 2026-04-18 14:14 | 52.96266 | -57.91151 | 40330 ft | 433 kts | 237° |
| 2026-04-18 14:15 | 52.92163 | -57.98425 | 40558 ft | 429 kts | 237° |
| 2026-04-18 14:15 | 52.90124 | -58.02023 | 40828 ft | 428 kts | 237° |
| 2026-04-18 14:15 | 52.88090 | -58.05610 | 41097 ft | 426 kts | 237° |
| 2026-04-18 14:15 | 52.86061 | -58.09178 | 41371 ft | 426 kts | 237° |
| 2026-04-18 14:16 | 52.84033 | -58.12739 | 41642 ft | 425 kts | 236° |
| 2026-04-18 14:16 | 52.82002 | -58.16303 | 41914 ft | 424 kts | 236° |
| 2026-04-18 14:16 | 52.79976 | -58.19852 | 42184 ft | 424 kts | 236° |
| 2026-04-18 14:16 | 52.77949 | -58.23396 | 42455 ft | 424 kts | 236° |
| 2026-04-18 14:17 | 52.75921 | -58.26938 | 42725 ft | 424 kts | 235° |
| 2026-04-18 14:17 | 52.73890 | -58.30480 | 42997 ft | 424 kts | 235° |
| 2026-04-18 14:17 | 52.69853 | -58.37506 | 43541 ft | 424 kts | 234° |
| 2026-04-18 14:18 | 52.65795 | -58.44550 | 44084 ft | 423 kts | 234° |
| 2026-04-18 14:18 | 52.63773 | -58.48052 | 44353 ft | 422 kts | 234° |
| 2026-04-18 14:19 | 52.60415 | -58.53858 | 44804 ft | 420 kts | 234° |
| 2026-04-18 14:19 | 52.58393 | -58.57347 | 45079 ft | 419 kts | 233° |
| 2026-04-18 14:19 | 52.53689 | -58.65455 | 45320 ft | 426 kts | 233° |
| 2026-04-18 14:20 | 52.52304 | -58.67841 | 45329 ft | 429 kts | 233° |
| 2026-04-18 14:20 | 52.48128 | -58.75010 | 45349 ft | 438 kts | 233° |
| 2026-04-18 14:21 | 52.43899 | -58.82241 | 45356 ft | 444 kts | 232° |
| 2026-04-18 14:21 | 52.39594 | -58.89574 | 45360 ft | 449 kts | 232° |
| 2026-04-18 14:22 | 52.33059 | -59.00663 | 45358 ft | 452 kts | 232° |
| 2026-04-18 14:23 | 52.26570 | -59.11623 | 45351 ft | 444 kts | 232° |
| 2026-04-18 14:23 | 52.20151 | -59.22425 | 45352 ft | 440 kts | 232° |
| 2026-04-18 14:24 | 52.13714 | -59.33226 | 45360 ft | 445 kts | 232° |
| 2026-04-18 14:25 | 52.09381 | -59.40464 | 45364 ft | 448 kts | 232° |
| 2026-04-18 14:25 | 52.05047 | -59.47673 | 45358 ft | 449 kts | 232° |
| 2026-04-18 14:26 | 52.00675 | -59.54923 | 45364 ft | 449 kts | 232° |
| 2026-04-18 14:26 | 51.96288 | -59.62177 | 45366 ft | 450 kts | 232° |
| 2026-04-18 14:27 | 51.91922 | -59.69378 | 45366 ft | 450 kts | 232° |
| 2026-04-18 14:27 | 51.87522 | -59.76613 | 45368 ft | 451 kts | 232° |
| 2026-04-18 14:28 | 51.83113 | -59.83843 | 45369 ft | 451 kts | 232° |
| 2026-04-18 14:28 | 51.78703 | -59.91052 | 45373 ft | 451 kts | 232° |
| 2026-04-18 14:29 | 51.74286 | -59.98253 | 45377 ft | 451 kts | 232° |
| 2026-04-18 14:29 | 51.69865 | -60.05438 | 45382 ft | 451 kts | 232° |
| 2026-04-18 14:30 | 51.65436 | -60.12614 | 45378 ft | 451 kts | 231° |
| 2026-04-18 14:30 | 51.61005 | -60.19773 | 45382 ft | 451 kts | 231° |
| 2026-04-18 14:31 | 51.56568 | -60.26921 | 45385 ft | 451 kts | 231° |
| 2026-04-18 14:31 | 51.52157 | -60.34005 | 45387 ft | 451 kts | 231° |
| 2026-04-18 14:32 | 51.47714 | -60.41121 | 45389 ft | 450 kts | 231° |
| 2026-04-18 14:32 | 51.43271 | -60.48216 | 45381 ft | 450 kts | 231° |
| 2026-04-18 14:33 | 51.38825 | -60.55296 | 45379 ft | 450 kts | 231° |
| 2026-04-18 14:33 | 51.34380 | -60.62353 | 45383 ft | 450 kts | 231° |
| 2026-04-18 14:34 | 51.29959 | -60.69351 | 45386 ft | 450 kts | 231° |
| 2026-04-18 14:34 | 51.25508 | -60.76376 | 45387 ft | 449 kts | 231° |
| 2026-04-18 14:35 | 51.21060 | -60.83378 | 45391 ft | 449 kts | 231° |
| 2026-04-18 14:35 | 51.16604 | -60.90372 | 45394 ft | 449 kts | 231° |
| 2026-04-18 14:36 | 51.12152 | -60.97338 | 45399 ft | 449 kts | 231° |
| 2026-04-18 14:36 | 51.07693 | -61.04296 | 45403 ft | 448 kts | 231° |
| 2026-04-18 14:37 | 51.03237 | -61.11230 | 45402 ft | 448 kts | 231° |
| 2026-04-18 14:37 | 50.98770 | -61.18161 | 45410 ft | 448 kts | 231° |
| 2026-04-18 14:38 | 50.94301 | -61.25075 | 45410 ft | 448 kts | 231° |
| 2026-04-18 14:38 | 50.89828 | -61.31977 | 45412 ft | 448 kts | 231° |
| 2026-04-18 14:39 | 50.85353 | -61.38861 | 45421 ft | 448 kts | 231° |
| 2026-04-18 14:39 | 50.80901 | -61.45690 | 45422 ft | 448 kts | 231° |
| 2026-04-18 14:40 | 50.76426 | -61.52536 | 45422 ft | 448 kts | 231° |
| 2026-04-18 14:40 | 50.71931 | -61.59392 | 45433 ft | 448 kts | 230° |
| 2026-04-18 14:41 | 50.67441 | -61.66224 | 45433 ft | 448 kts | 230° |
| 2026-04-18 14:41 | 50.62951 | -61.73035 | 45427 ft | 448 kts | 230° |
| 2026-04-18 14:42 | 50.58492 | -61.79780 | 45434 ft | 447 kts | 230° |
| 2026-04-18 14:42 | 50.54001 | -61.86554 | 45429 ft | 447 kts | 230° |
| 2026-04-18 14:43 | 50.49501 | -61.93324 | 45430 ft | 447 kts | 230° |
| 2026-04-18 14:43 | 50.44997 | -62.00081 | 45434 ft | 447 kts | 230° |
| 2026-04-18 14:44 | 50.40495 | -62.06816 | 45432 ft | 447 kts | 230° |
| 2026-04-18 14:44 | 50.35985 | -62.13544 | 45433 ft | 447 kts | 230° |
| 2026-04-18 14:45 | 50.31501 | -62.20214 | 45429 ft | 447 kts | 230° |
| 2026-04-18 14:45 | 50.26958 | -62.26955 | 45433 ft | 447 kts | 230° |
| 2026-04-18 14:46 | 50.22470 | -62.33596 | 45427 ft | 447 kts | 230° |
| 2026-04-18 14:46 | 50.17943 | -62.40274 | 45427 ft | 447 kts | 230° |
| 2026-04-18 14:47 | 50.13420 | -62.46930 | 45427 ft | 447 kts | 230° |
| 2026-04-18 14:47 | 50.08890 | -62.53577 | 45427 ft | 447 kts | 230° |
| 2026-04-18 14:48 | 50.04357 | -62.60211 | 45421 ft | 447 kts | 230° |
| 2026-04-18 14:48 | 49.99823 | -62.66830 | 45419 ft | 447 kts | 230° |
| 2026-04-18 14:49 | 49.95286 | -62.73434 | 45419 ft | 448 kts | 229° |
| 2026-04-18 14:49 | 49.90763 | -62.79998 | 45419 ft | 448 kts | 229° |
| 2026-04-18 14:50 | 49.86208 | -62.86593 | 45412 ft | 448 kts | 229° |
| 2026-04-18 14:50 | 49.81642 | -62.93185 | 45411 ft | 448 kts | 229° |
| 2026-04-18 14:51 | 49.77072 | -62.99765 | 45411 ft | 448 kts | 229° |
| 2026-04-18 14:51 | 49.72496 | -63.06335 | 45416 ft | 448 kts | 229° |
| 2026-04-18 14:52 | 49.67922 | -63.12887 | 45414 ft | 448 kts | 229° |
| 2026-04-18 14:52 | 49.63341 | -63.19427 | 45414 ft | 448 kts | 229° |
| 2026-04-18 14:53 | 49.58788 | -63.25912 | 45408 ft | 448 kts | 229° |
| 2026-04-18 14:53 | 49.54203 | -63.32425 | 45407 ft | 448 kts | 229° |
| 2026-04-18 14:54 | 49.49608 | -63.38937 | 45405 ft | 448 kts | 229° |
| 2026-04-18 14:54 | 49.45009 | -63.45435 | 45406 ft | 448 kts | 229° |
| 2026-04-18 14:55 | 49.40413 | -63.51911 | 45404 ft | 448 kts | 229° |
| 2026-04-18 14:55 | 49.35839 | -63.58340 | 45403 ft | 448 kts | 229° |
| 2026-04-18 14:56 | 49.31236 | -63.64793 | 45391 ft | 448 kts | 228° |
| 2026-04-18 14:56 | 49.26625 | -63.71240 | 45385 ft | 449 kts | 228° |
| 2026-04-18 14:57 | 49.22005 | -63.77682 | 45384 ft | 449 kts | 228° |
| 2026-04-18 14:57 | 49.17389 | -63.84100 | 45384 ft | 449 kts | 228° |
| 2026-04-18 14:58 | 49.12764 | -63.90514 | 45384 ft | 449 kts | 228° |
| 2026-04-18 14:58 | 49.08134 | -63.96920 | 45376 ft | 450 kts | 228° |
| 2026-04-18 14:59 | 49.03490 | -64.03328 | 45376 ft | 450 kts | 227° |
| 2026-04-18 14:59 | 48.98881 | -64.09670 | 45375 ft | 450 kts | 227° |
| 2026-04-18 15:00 | 48.94235 | -64.16046 | 45376 ft | 450 kts | 227° |
| 2026-04-18 15:00 | 48.89580 | -64.22418 | 45376 ft | 450 kts | 227° |
| 2026-04-18 15:01 | 48.84922 | -64.28778 | 45376 ft | 450 kts | 227° |
| 2026-04-18 15:01 | 48.80254 | -64.35134 | 45375 ft | 450 kts | 227° |
| 2026-04-18 15:02 | 48.75584 | -64.41476 | 45379 ft | 451 kts | 227° |
| 2026-04-18 15:02 | 48.70834 | -64.47701 | 45376 ft | 452 kts | 225° |
| 2026-04-18 15:03 | 48.66042 | -64.53869 | 45381 ft | 452 kts | 225° |
| 2026-04-18 15:03 | 48.61282 | -64.59999 | 45377 ft | 452 kts | 225° |
| 2026-04-18 15:04 | 48.56497 | -64.66162 | 45378 ft | 452 kts | 225° |
| 2026-04-18 15:04 | 48.51708 | -64.72323 | 45379 ft | 452 kts | 225° |
| 2026-04-18 15:05 | 48.46916 | -64.78473 | 45378 ft | 452 kts | 225° |
| 2026-04-18 15:05 | 48.42122 | -64.84610 | 45375 ft | 452 kts | 225° |
| 2026-04-18 15:06 | 48.37325 | -64.90736 | 45377 ft | 452 kts | 225° |
| 2026-04-18 15:06 | 48.32532 | -64.96842 | 45375 ft | 452 kts | 225° |
| 2026-04-18 15:07 | 48.28535 | -65.01920 | 45375 ft | 452 kts | 225° |
| 2026-04-18 15:07 | 48.22955 | -65.08993 | 45378 ft | 452 kts | 225° |
| 2026-04-18 15:08 | 48.18931 | -65.14080 | 45377 ft | 451 kts | 225° |
| 2026-04-18 15:08 | 48.14127 | -65.20140 | 45377 ft | 452 kts | 225° |
| 2026-04-18 15:09 | 48.09315 | -65.26194 | 45376 ft | 451 kts | 225° |
| 2026-04-18 15:09 | 48.04533 | -65.32195 | 45374 ft | 451 kts | 225° |
| 2026-04-18 15:10 | 47.99717 | -65.38223 | 45377 ft | 451 kts | 224° |
| 2026-04-18 15:10 | 47.94904 | -65.44235 | 45374 ft | 452 kts | 224° |
| 2026-04-18 15:11 | 47.90080 | -65.50242 | 45373 ft | 452 kts | 224° |
| 2026-04-18 15:11 | 47.85252 | -65.56240 | 45374 ft | 452 kts | 224° |
| 2026-04-18 15:12 | 47.80420 | -65.62228 | 45374 ft | 452 kts | 224° |
| 2026-04-18 15:12 | 47.75589 | -65.68200 | 45374 ft | 452 kts | 224° |
| 2026-04-18 15:13 | 47.70779 | -65.74131 | 45374 ft | 452 kts | 224° |
| 2026-04-18 15:13 | 47.65943 | -65.80079 | 45374 ft | 452 kts | 224° |
| 2026-04-18 15:14 | 47.61099 | -65.86021 | 45373 ft | 450 kts | 224° |
| 2026-04-18 15:14 | 47.56285 | -65.91912 | 45368 ft | 448 kts | 224° |
| 2026-04-18 15:15 | 47.49069 | -66.00715 | 45365 ft | 447 kts | 224° |
| 2026-04-18 15:15 | 47.44268 | -66.06557 | 45365 ft | 447 kts | 224° |
| 2026-04-18 15:16 | 47.39458 | -66.12394 | 45359 ft | 447 kts | 224° |
| 2026-04-18 15:16 | 47.34643 | -66.18222 | 45364 ft | 448 kts | 224° |
| 2026-04-18 15:17 | 47.29821 | -66.24044 | 45361 ft | 448 kts | 224° |
| 2026-04-18 15:17 | 47.24995 | -66.29859 | 45351 ft | 448 kts | 224° |
| 2026-04-18 15:18 | 47.20188 | -66.35635 | 45344 ft | 448 kts | 224° |
| 2026-04-18 15:18 | 47.15351 | -66.41432 | 45338 ft | 448 kts | 223° |
| 2026-04-18 15:19 | 47.10514 | -66.47217 | 45332 ft | 448 kts | 223° |
| 2026-04-18 15:19 | 47.05675 | -66.52990 | 45330 ft | 449 kts | 224° |
| 2026-04-18 15:20 | 47.00827 | -66.58758 | 45310 ft | 449 kts | 223° |
| 2026-04-18 15:20 | 46.95973 | -66.64522 | 45304 ft | 449 kts | 223° |
| 2026-04-18 15:21 | 46.91113 | -66.70277 | 45299 ft | 449 kts | 223° |
| 2026-04-18 15:21 | 46.86303 | -66.75967 | 44980 ft | 438 kts | 224° |
| 2026-04-18 15:22 | 46.83968 | -66.78732 | 44463 ft | 436 kts | 224° |
| 2026-04-18 15:22 | 46.81605 | -66.81512 | 43943 ft | 435 kts | 224° |
| 2026-04-18 15:22 | 46.79252 | -66.84276 | 43426 ft | 434 kts | 224° |
| 2026-04-18 15:22 | 46.76905 | -66.87032 | 42909 ft | 434 kts | 225° |
| 2026-04-18 15:23 | 46.74545 | -66.89801 | 42387 ft | 435 kts | 225° |
| 2026-04-18 15:23 | 46.72190 | -66.92563 | 41868 ft | 437 kts | 225° |
| 2026-04-18 15:23 | 46.69812 | -66.95349 | 41350 ft | 440 kts | 225° |
| 2026-04-18 15:23 | 46.67415 | -66.98155 | 40833 ft | 444 kts | 225° |
| 2026-04-18 15:24 | 46.64998 | -67.00981 | 40319 ft | 448 kts | 225° |
| 2026-04-18 15:24 | 46.62551 | -67.03839 | 39801 ft | 452 kts | 225° |
| 2026-04-18 15:24 | 46.60085 | -67.06717 | 39284 ft | 457 kts | 226° |
| 2026-04-18 15:24 | 46.57598 | -67.09613 | 38775 ft | 461 kts | 226° |
| 2026-04-18 15:25 | 46.55082 | -67.12541 | 38259 ft | 465 kts | 225° |
| 2026-04-18 15:25 | 46.52581 | -67.15444 | 37755 ft | 467 kts | 225° |
| 2026-04-18 15:25 | 46.50037 | -67.18391 | 37246 ft | 468 kts | 225° |
| 2026-04-18 15:25 | 46.47492 | -67.21335 | 36736 ft | 468 kts | 225° |
| 2026-04-18 15:26 | 46.44949 | -67.24273 | 36220 ft | 467 kts | 224° |
| 2026-04-18 15:26 | 46.42413 | -67.27201 | 35705 ft | 465 kts | 224° |
| 2026-04-18 15:26 | 46.39886 | -67.30115 | 35188 ft | 464 kts | 224° |
| 2026-04-18 15:26 | 46.37364 | -67.33020 | 34665 ft | 462 kts | 224° |
| 2026-04-18 15:27 | 46.34849 | -67.35912 | 34141 ft | 460 kts | 224° |
| 2026-04-18 15:27 | 46.32352 | -67.38783 | 33625 ft | 458 kts | 223° |
| 2026-04-18 15:27 | 46.29864 | -67.41640 | 33101 ft | 455 kts | 223° |
| 2026-04-18 15:27 | 46.27389 | -67.44480 | 32580 ft | 452 kts | 223° |
| 2026-04-18 15:28 | 46.24937 | -67.47289 | 32059 ft | 448 kts | 223° |
| 2026-04-18 15:28 | 46.22500 | -67.50076 | 31537 ft | 445 kts | 223° |
| 2026-04-18 15:28 | 46.20088 | -67.52833 | 31019 ft | 441 kts | 223° |
| 2026-04-18 15:28 | 46.17691 | -67.55571 | 30500 ft | 436 kts | 223° |
| 2026-04-18 15:29 | 46.15352 | -67.58307 | 29979 ft | 431 kts | 225° |
| 2026-04-18 15:29 | 46.13157 | -67.61125 | 29460 ft | 425 kts | 227° |
| 2026-04-18 15:29 | 46.10998 | -67.64003 | 28947 ft | 421 kts | 227° |
| 2026-04-18 15:29 | 46.08868 | -67.66863 | 28501 ft | 415 kts | 227° |
| 2026-04-18 15:30 | 46.06756 | -67.69680 | 28044 ft | 411 kts | 226° |
| 2026-04-18 15:30 | 46.04660 | -67.72450 | 27595 ft | 408 kts | 226° |
| 2026-04-18 15:30 | 46.02571 | -67.75192 | 27140 ft | 404 kts | 226° |
| 2026-04-18 15:30 | 46.00493 | -67.77903 | 26683 ft | 401 kts | 226° |
| 2026-04-18 15:31 | 45.98431 | -67.80583 | 26229 ft | 399 kts | 225° |
| 2026-04-18 15:31 | 45.96374 | -67.83250 | 25776 ft | 397 kts | 225° |
| 2026-04-18 15:31 | 45.94329 | -67.85899 | 25327 ft | 395 kts | 225° |
| 2026-04-18 15:31 | 45.92290 | -67.88538 | 24880 ft | 393 kts | 225° |
| 2026-04-18 15:32 | 45.90266 | -67.91151 | 24431 ft | 391 kts | 225° |
| 2026-04-18 15:32 | 45.88273 | -67.93721 | 23984 ft | 389 kts | 225° |
| 2026-04-18 15:32 | 45.86240 | -67.96340 | 23526 ft | 387 kts | 224° |
| 2026-04-18 15:32 | 45.84265 | -67.98884 | 23078 ft | 385 kts | 224° |
| 2026-04-18 15:33 | 45.82273 | -68.01444 | 22625 ft | 383 kts | 224° |
| 2026-04-18 15:33 | 45.80285 | -68.03996 | 22171 ft | 382 kts | 224° |
| 2026-04-18 15:33 | 45.78312 | -68.06528 | 21720 ft | 380 kts | 224° |
| 2026-04-18 15:33 | 45.76349 | -68.09046 | 21268 ft | 379 kts | 224° |
| 2026-04-18 15:34 | 45.74392 | -68.11554 | 20806 ft | 377 kts | 223° |
| 2026-04-18 15:34 | 45.72438 | -68.14051 | 20361 ft | 376 kts | 223° |
| 2026-04-18 15:34 | 45.70489 | -68.16540 | 19920 ft | 374 kts | 223° |
| 2026-04-18 15:34 | 45.68557 | -68.19007 | 19525 ft | 371 kts | 223° |
| 2026-04-18 15:35 | 45.66637 | -68.21461 | 19116 ft | 369 kts | 223° |
| 2026-04-18 15:35 | 45.64728 | -68.23894 | 18702 ft | 367 kts | 223° |
| 2026-04-18 15:35 | 45.62833 | -68.26305 | 18318 ft | 364 kts | 222° |
| 2026-04-18 15:35 | 45.60938 | -68.28712 | 17918 ft | 363 kts | 222° |
| 2026-04-18 15:36 | 45.59063 | -68.31099 | 17512 ft | 361 kts | 222° |
| 2026-04-18 15:36 | 45.57187 | -68.33481 | 17110 ft | 360 kts | 222° |
| 2026-04-18 15:36 | 45.55314 | -68.35857 | 16705 ft | 359 kts | 222° |
| 2026-04-18 15:36 | 45.53489 | -68.38170 | 16308 ft | 352 kts | 221° |
| 2026-04-18 15:37 | 45.51667 | -68.40475 | 15901 ft | 347 kts | 221° |
| 2026-04-18 15:37 | 45.49869 | -68.42753 | 15502 ft | 343 kts | 221° |
| 2026-04-18 15:37 | 45.48091 | -68.44996 | 15097 ft | 340 kts | 221° |
| 2026-04-18 15:37 | 45.46323 | -68.47225 | 14692 ft | 338 kts | 221° |
| 2026-04-18 15:38 | 45.44568 | -68.49438 | 14285 ft | 336 kts | 221° |
| 2026-04-18 15:38 | 45.42820 | -68.51642 | 13888 ft | 335 kts | 220° |
| 2026-04-18 15:38 | 45.41080 | -68.53834 | 13495 ft | 334 kts | 220° |
| 2026-04-18 15:38 | 45.39365 | -68.55990 | 13105 ft | 333 kts | 220° |
| 2026-04-18 15:39 | 45.37632 | -68.58171 | 12708 ft | 332 kts | 220° |
| 2026-04-18 15:39 | 45.35901 | -68.60346 | 12320 ft | 331 kts | 220° |
| 2026-04-18 15:39 | 45.34177 | -68.62513 | 11922 ft | 330 kts | 220° |
| 2026-04-18 15:39 | 45.32477 | -68.64647 | 11519 ft | 320 kts | 220° |
| 2026-04-18 15:40 | 45.30870 | -68.66669 | 11111 ft | 296 kts | 220° |
| 2026-04-18 15:40 | 45.29384 | -68.68540 | 10749 ft | 275 kts | 219° |
| 2026-04-18 15:40 | 45.27987 | -68.70293 | 10402 ft | 264 kts | 219° |
| 2026-04-18 15:40 | 45.26600 | -68.72019 | 10076 ft | 266 kts | 219° |
| 2026-04-18 15:41 | 45.25209 | -68.73748 | 9749 ft | 267 kts | 219° |
| 2026-04-18 15:41 | 45.23810 | -68.75488 | 9417 ft | 268 kts | 219° |
| 2026-04-18 15:41 | 45.22409 | -68.77233 | 9087 ft | 268 kts | 219° |
| 2026-04-18 15:41 | 45.21004 | -68.78983 | 8769 ft | 269 kts | 219° |
| 2026-04-18 15:42 | 45.19594 | -68.80741 | 8444 ft | 270 kts | 219° |
| 2026-04-18 15:42 | 45.18183 | -68.82498 | 8120 ft | 271 kts | 218° |
| 2026-04-18 15:42 | 45.16765 | -68.84260 | 7792 ft | 271 kts | 218° |
| 2026-04-18 15:42 | 45.15363 | -68.85998 | 7488 ft | 271 kts | 218° |
| 2026-04-18 15:43 | 45.13948 | -68.87763 | 7170 ft | 271 kts | 219° |
| 2026-04-18 15:43 | 45.12526 | -68.89534 | 6843 ft | 271 kts | 218° |
| 2026-04-18 15:43 | 45.11108 | -68.91290 | 6518 ft | 271 kts | 218° |
| 2026-04-18 15:43 | 45.09695 | -68.93045 | 6235 ft | 269 kts | 218° |
| 2026-04-18 15:44 | 45.08410 | -68.94644 | 5981 ft | 266 kts | 218° |
| 2026-04-18 15:44 | 45.07003 | -68.96387 | 5688 ft | 256 kts | 218° |
| 2026-04-18 15:44 | 45.05704 | -68.97997 | 5423 ft | 242 kts | 218° |
| 2026-04-18 15:44 | 45.04466 | -68.99530 | 5145 ft | 232 kts | 218° |
| 2026-04-18 15:45 | 45.03269 | -69.01014 | 4868 ft | 225 kts | 217° |
| 2026-04-18 15:45 | 45.02101 | -69.02452 | 4585 ft | 220 kts | 217° |
| 2026-04-18 15:45 | 45.00826 | -69.03542 | 4305 ft | 212 kts | 198° |
| 2026-04-18 15:45 | 44.99415 | -69.03754 | 4251 ft | 192 kts | 175° |
| 2026-04-18 15:46 | 44.98072 | -69.03637 | 4189 ft | 195 kts | 173° |
| 2026-04-18 15:46 | 44.96760 | -69.03291 | 4096 ft | 191 kts | 162° |
| 2026-04-18 15:46 | 44.95501 | -69.02628 | 3879 ft | 196 kts | 156° |
| 2026-04-18 15:46 | 44.94265 | -69.01805 | 3709 ft | 195 kts | 151° |
| 2026-04-18 15:47 | 44.93160 | -69.00802 | 3474 ft | 182 kts | 141° |
| 2026-04-18 15:47 | 44.92270 | -68.99612 | 3239 ft | 172 kts | 132° |
| 2026-04-18 15:47 | 44.91516 | -68.98410 | 3065 ft | 153 kts | 131° |
| 2026-04-18 15:47 | 44.90838 | -68.97334 | 2851 ft | 142 kts | 131° |
| 2026-04-18 15:48 | 44.90168 | -68.96323 | 2657 ft | 139 kts | 133° |
| 2026-04-18 15:48 | 44.89489 | -68.95354 | 2453 ft | 138 kts | 134° |
| 2026-04-18 15:48 | 44.88808 | -68.94401 | 2232 ft | 138 kts | 134° |
| 2026-04-18 15:48 | 44.88151 | -68.93493 | 2017 ft | 128 kts | 133° |
| 2026-04-18 15:49 | 44.87536 | -68.92600 | 1790 ft | 127 kts | 131° |
| 2026-04-18 15:49 | 44.86935 | -68.91709 | 1543 ft | 127 kts | 133° |
| 2026-04-18 15:49 | 44.86316 | -68.90821 | 1308 ft | 128 kts | 133° |
| 2026-04-18 15:49 | 44.85683 | -68.89900 | 1260 ft | 131 kts | 133° |
| 2026-04-18 15:50 | 44.85040 | -68.88986 | 1099 ft | 131 kts | 134° |
| 2026-04-18 15:50 | 44.84397 | -68.88083 | 885 ft | 128 kts | 133° |
| 2026-04-18 15:50 | 44.83780 | -68.87176 | 721 ft | 128 kts | 131° |
| 2026-04-18 15:50 | 44.83162 | -68.86274 | 590 ft | 129 kts | 133° |
| 2026-04-18 15:51 | 44.82524 | -68.85376 | 425 ft | 131 kts | 133° |
| 2026-04-18 15:51 | 44.81889 | -68.84469 | 281 ft | 128 kts | 134° |
| 2026-04-18 15:51 | 44.81307 | -68.83627 | 184 ft | 110 kts | 134° |
| 2026-04-18 15:51 | 44.80908 | -68.83045 | 177 ft | 71 kts | 133° |
| 2026-04-18 15:52 | 44.80620 | -68.82634 | 169 ft | 40 kts | 135° |
| 2026-04-18 15:52 | 44.80486 | -68.82437 | 164 ft | 27 kts | 134° |
| 2026-04-18 15:52 | 44.80349 | -68.82240 | 164 ft | 20 kts | 135° |
| 2026-04-18 15:52 | 44.80328 | -68.82116 | 164 ft | 16 kts | 55° |
| 2026-04-18 15:53 | 44.80416 | -68.81989 | 161 ft | 21 kts | 45° |
| 2026-04-18 15:53 | 44.80492 | -68.81874 | 154 ft | 12 kts | 81° |
| 2026-04-18 15:53 | 44.80431 | -68.81759 | 153 ft | 18 kts | 135° |
| 2026-04-18 15:53 | 44.80346 | -68.81635 | 153 ft | 13 kts | 133° |
| 2026-04-18 15:54 | 44.80326 | -68.81557 | 153 ft | 10 kts | 31° |
| 2026-04-18 15:54 | 44.80343 | -68.81480 | 154 ft | 12 kts | 113° |
| 2026-04-18 15:54 | 44.80311 | -68.81364 | 154 ft | 8 kts | 110° |
| 2026-04-18 15:54 | 44.80344 | -68.81297 | 155 ft | 9 kts | 13° |
| 2026-04-18 15:55 | 44.80368 | -68.81318 | 155 ft | 1 kts | 290° |
| 2026-04-18 15:55 | 44.80374 | -68.81339 | 155 ft | 0 kts | 291° |